Time;durP1;ratioP1;P1;durP2;ratioP2;P2;SDS_P1;SDS_P2;PMS_P1;PMS_P2;Temp;Humidity;BMP_temperature;BMP_pressure;BME280_temperature;BME280_humidity;BME280_pressure;Samples;Min_cycle;Max_cycle;Signal;HPM_P1;HPM_P2
2022/02/06 00:01:23;;;;;;;11.50;2.83;;;;;;;2.11;94.95;98578.80;1794204;79;20993;-65
2022/02/06 00:03:56;;;;;;;12.28;3.42;;;;;;;2.10;94.85;98571.10;1789988;79;20933;-65
2022/02/06 00:06:18;;;;;;;10.18;2.77;;;;;;;2.08;94.88;98565.18;1794294;79;21507;-65
2022/02/06 00:08:45;;;;;;;6.12;2.40;;;;;;;2.07;94.91;98564.77;1788192;78;20969;-65
2022/02/06 00:11:12;;;;;;;11.55;3.20;;;;;;;2.08;94.88;98555.72;1791196;79;20989;-65
2022/02/06 00:13:38;;;;;;;9.00;2.95;;;;;;;2.10;94.94;98547.92;1821592;78;21527;-65
2022/02/06 00:16:05;;;;;;;12.00;3.22;;;;;;;2.11;94.92;98545.31;1810123;77;21448;-65
2022/02/06 00:18:32;;;;;;;12.70;3.77;;;;;;;2.14;94.81;98549.53;1817962;77;21918;-65
2022/02/06 00:21:04;;;;;;;11.18;3.27;;;;;;;2.16;94.89;98541.32;1832033;77;20922;-65
2022/02/06 00:23:29;;;;;;;7.62;2.85;;;;;;;2.17;94.77;98545.12;1816886;77;20982;-65
2022/02/06 00:26:03;;;;;;;10.78;3.35;;;;;;;2.18;94.96;98544.22;1785816;79;20934;-65
2022/02/06 00:28:39;;;;;;;11.88;3.40;;;;;;;2.19;94.88;98532.20;1783598;78;21058;-65
2022/02/06 00:31:14;;;;;;;6.08;2.47;;;;;;;2.21;94.85;98535.55;1759321;80;21091;-65
2022/02/06 00:41:30;;;;;;;12.30;3.05;;;;;;;2.22;94.57;98519.23;1779073;78;21888;-65
2022/02/06 00:43:53;;;;;;;10.40;2.92;;;;;;;2.23;94.67;98517.03;1769150;79;21365;-65
2022/02/06 00:46:22;;;;;;;4.62;2.45;;;;;;;2.23;94.66;98505.45;1782755;79;20922;-65
2022/02/06 00:48:54;;;;;;;5.03;2.75;;;;;;;2.23;94.64;98496.43;1793933;79;21507;-65
2022/02/06 00:51:27;;;;;;;10.08;3.00;;;;;;;2.23;94.62;98492.56;1777962;78;21004;-65
2022/02/06 00:53:46;;;;;;;7.50;3.30;;;;;;;2.21;94.55;98484.91;1772859;79;22377;-65
2022/02/06 00:56:13;;;;;;;9.50;4.13;;;;;;;2.22;94.50;98480.59;1762803;79;21115;-65
2022/02/06 00:58:40;;;;;;;10.80;3.77;;;;;;;2.22;94.58;98476.73;1778728;80;21032;-65
2022/02/06 01:01:06;;;;;;;8.10;3.42;;;;;;;2.20;94.56;98475.93;1764564;79;21643;-65
2022/02/06 01:03:33;;;;;;;7.70;3.22;;;;;;;2.20;94.63;98460.48;1769025;79;20974;-65
2022/02/06 01:06:00;;;;;;;9.65;3.83;;;;;;;2.09;94.65;98432.96;1768184;79;21049;-65
2022/02/06 01:08:27;;;;;;;8.53;3.35;;;;;;;2.09;94.65;98432.96;1772529;79;21311;-65
2022/02/06 01:10:54;;;;;;;6.75;3.33;;;;;;;2.19;94.52;98442.07;1775594;79;20946;-65
2022/02/06 01:13:34;;;;;;;11.50;3.40;;;;;;;2.19;94.52;98431.77;1753608;79;21048;-65
2022/02/06 01:16:05;;;;;;;6.60;3.17;;;;;;;2.19;94.42;98439.49;1765427;79;20958;-65
2022/02/06 01:18:31;;;;;;;5.40;3.45;;;;;;;2.18;94.46;98422.34;1747496;79;21724;-65
2022/02/06 01:21:09;;;;;;;11.73;3.52;;;;;;;2.17;94.38;98423.25;1768986;79;21518;-65
2022/02/06 01:23:30;;;;;;;5.78;3.30;;;;;;;2.16;94.47;98422.86;1743297;79;21009;-65
2022/02/06 01:26:06;;;;;;;8.48;3.83;;;;;;;2.19;94.57;98424.05;1771845;79;21044;-65
2022/02/06 01:28:40;;;;;;;7.53;3.05;;;;;;;2.18;94.51;98415.91;1758763;79;21004;-65
2022/02/06 01:31:21;;;;;;;8.40;3.95;;;;;;;2.18;94.51;98410.75;1763090;79;21012;-64
2022/02/06 01:33:39;;;;;;;7.40;4.00;;;;;;;2.18;94.54;98410.75;1767607;79;21085;-64
2022/02/06 01:36:09;;;;;;;7.78;3.70;;;;;;;2.17;94.54;98401.36;1756174;79;21024;-65
2022/02/06 01:38:48;;;;;;;7.47;3.70;;;;;;;2.17;94.50;98389.77;1770633;80;21040;-65
2022/02/06 01:41:11;;;;;;;8.28;3.37;;;;;;;2.16;94.42;98396.66;1763531;80;21064;-65
2022/02/06 01:43:42;;;;;;;9.18;3.27;;;;;;;2.15;94.46;98381.25;1770105;80;20961;-65
2022/02/06 01:46:32;;;;;;;10.60;3.62;;;;;;;2.16;94.40;98377.80;1771740;80;21507;-65
2022/02/06 02:03:01;;;;;;;5.97;3.27;;;;;;;2.11;94.24;98326.45;1792569;79;21056;-64
2022/02/06 02:08:38;;;;;;;7.92;3.52;;;;;;;2.10;94.24;98323.91;1788830;79;21055;-65
2022/02/06 02:11:17;;;;;;;5.62;3.20;;;;;;;2.06;94.23;98300.47;1780326;78;21024;-65
2022/02/06 02:26:45;;;;;;;3.53;3.17;;;;;;;2.05;94.39;98269.20;1785589;79;21631;-65
2022/02/06 02:29:29;;;;;;;6.28;3.27;;;;;;;2.05;94.38;98264.88;1793689;78;21017;-65
2022/02/06 02:45:36;;;;;;;2.85;2.52;;;;;;;1.87;94.20;98209.73;1781599;78;20997;-64
2022/02/06 02:48:00;;;;;;;3.45;2.52;;;;;;;1.83;94.23;98204.32;1768091;79;21579;-65
2022/02/06 02:50:23;;;;;;;4.22;2.58;;;;;;;1.83;94.33;98200.45;1761291;79;21843;-65
2022/02/06 02:53:11;;;;;;;2.75;2.30;;;;;;;1.83;94.38;98201.75;1774069;78;22019;-65
2022/02/06 03:00:50;;;;;;;3.08;2.22;;;;;;;1.87;94.38;98194.29;1789233;78;20907;-65
2022/02/06 03:05:40;;;;;;;3.50;2.52;;;;;;;1.89;94.36;98174.49;1799092;78;21194;-66
2022/02/06 03:08:08;;;;;;;4.15;2.30;;;;;;;1.91;94.39;98167.56;1781336;78;20938;-65
2022/02/06 03:10:36;;;;;;;3.15;1.98;;;;;;;1.94;94.37;98163.58;1784274;79;21024;-65
2022/02/06 03:13:07;;;;;;;3.35;2.08;;;;;;;1.96;94.34;98162.22;1791522;79;21036;-65
2022/02/06 03:18:13;;;;;;;4.35;2.47;;;;;;;2.00;94.35;98156.08;1816384;78;21963;-65
2022/02/06 03:20:35;;;;;;;3.37;2.02;;;;;;;2.01;94.31;98153.43;1796364;78;21061;-65
2022/02/06 03:23:05;;;;;;;2.27;2.00;;;;;;;2.04;94.32;98155.50;1776846;79;21006;-65
2022/02/06 03:25:30;;;;;;;3.40;1.72;;;;;;;2.03;94.29;98153.39;1794914;79;21322;-65
2022/02/06 03:27:57;;;;;;;3.05;2.20;;;;;;;2.04;94.21;98146.50;1794520;78;21055;-65
2022/02/06 03:30:29;;;;;;;2.23;1.67;;;;;;;2.00;94.14;98151.77;1795156;78;21537;-65
2022/02/06 03:32:54;;;;;;;2.25;1.77;;;;;;;1.99;94.20;98148.81;1792589;78;21193;-65
2022/02/06 03:35:21;;;;;;;4.65;2.30;;;;;;;1.95;94.19;98139.51;1792310;78;21545;-65
2022/02/06 03:37:48;;;;;;;2.37;1.83;;;;;;;1.92;94.21;98135.77;1768006;79;21098;-65
2022/02/06 03:40:25;;;;;;;2.37;1.37;;;;;;;1.92;94.22;98129.33;1807731;78;21282;-65
2022/02/06 03:43:51;;;;;;;2.33;1.50;;;;;;;1.91;94.18;98126.37;1794514;78;22295;-65
2022/02/06 03:45:23;;;;;;;2.17;1.45;;;;;;;1.90;94.15;98129.83;1790743;78;20954;-65
2022/02/06 03:47:56;;;;;;;4.45;1.95;;;;;;;1.87;94.15;98119.66;1791108;78;20985;-65
2022/02/06 03:50:19;;;;;;;3.83;1.85;;;;;;;1.84;94.13;98110.77;1795743;79;20980;-66
2022/02/06 03:52:50;;;;;;;3.45;1.60;;;;;;;1.82;94.10;98102.70;1814185;78;20989;-65
2022/02/06 03:55:21;;;;;;;1.95;1.50;;;;;;;1.77;94.00;98102.91;1803778;78;22257;-65
2022/02/06 03:57:52;;;;;;;2.45;1.70;;;;;;;1.74;93.98;98095.30;1773103;79;21008;-65
2022/02/06 04:00:23;;;;;;;1.77;1.40;;;;;;;1.70;94.05;98088.58;1784139;78;20957;-65
2022/02/06 04:02:50;;;;;;;3.60;1.72;;;;;;;1.67;94.07;98080.97;1785911;79;20995;-65
2022/02/06 04:05:17;;;;;;;2.27;1.30;;;;;;;1.65;94.16;98075.03;1780268;79;20914;-65
2022/02/06 04:07:46;;;;;;;1.75;1.20;;;;;;;1.63;94.19;98069.13;1790534;79;21182;-65
2022/02/06 04:10:15;;;;;;;2.62;1.42;;;;;;;1.62;94.25;98055.41;1789300;79;21007;-65
2022/02/06 04:12:44;;;;;;;2.80;1.30;;;;;;;1.63;94.34;98066.56;1787570;80;20910;-65
2022/02/06 04:15:27;;;;;;;2.08;1.52;;;;;;;1.63;94.41;98045.98;1783084;80;21057;-65
2022/02/06 04:18:06;;;;;;;2.27;1.65;;;;;;;1.62;94.39;98052.00;1768828;79;21520;-65
2022/02/06 04:20:20;;;;;;;3.33;1.80;;;;;;;1.62;94.42;98039.97;1767884;79;21115;-65
2022/02/06 04:22:46;;;;;;;4.15;1.55;;;;;;;1.62;94.44;98036.56;1775899;79;21554;-66
2022/02/06 04:25:13;;;;;;;1.22;1.00;;;;;;;1.61;94.42;98034.90;1777342;79;21265;-66
2022/02/06 04:27:39;;;;;;;2.33;1.40;;;;;;;1.61;94.48;98020.75;1784672;80;20998;-66
2022/02/06 04:30:09;;;;;;;1.20;1.10;;;;;;;1.61;94.52;98022.03;1781090;79;20995;-65
2022/02/06 04:32:36;;;;;;;2.33;1.17;;;;;;;1.62;94.55;98015.98;1782997;79;21654;-66
2022/02/06 04:35:04;;;;;;;2.10;1.20;;;;;;;1.63;94.60;97999.67;1775935;80;21472;-65
2022/02/06 04:37:40;;;;;;;2.10;1.25;;;;;;;1.63;94.56;98004.81;1767765;79;21082;-65
2022/02/06 04:40:35;;;;;;;1.60;1.10;;;;;;;1.62;94.57;97995.41;1782165;79;21044;-65
2022/02/06 04:46:22;;;;;;;0.80;0.80;;;;;;;1.65;94.67;97988.85;1790237;79;21621;-66
2022/02/06 04:48:33;;;;;;;1.32;1.00;;;;;;;1.65;94.65;97986.28;1776180;80;22274;-65
2022/02/06 05:11:00;;;;;;;1.70;1.27;;;;;;;1.65;94.74;97964.41;1770152;79;20927;-65
2022/02/06 05:15:07;;;;;;;2.05;1.60;;;;;;;1.69;94.83;97934.65;1753472;80;20958;-66
2022/02/06 05:22:49;;;;;;;2.35;1.00;;;;;;;1.64;94.81;97916.44;1783210;79;21032;-65
2022/02/06 05:27:57;;;;;;;2.77;0.65;;;;;;;1.63;94.83;97912.20;1759910;80;21013;-65
2022/02/06 05:30:15;;;;;;;0.82;0.80;;;;;;;1.62;94.74;97905.36;1782691;78;21845;-65
2022/02/06 05:32:50;;;;;;;1.15;0.90;;;;;;;1.60;94.76;97912.30;1771749;80;21635;-65
2022/02/06 05:35:08;;;;;;;1.77;0.90;;;;;;;1.58;94.83;97896.94;1779600;78;21492;-65
2022/02/06 05:37:35;;;;;;;1.12;0.90;;;;;;;1.58;94.84;97890.97;1803754;78;21080;-65
2022/02/06 05:40:03;;;;;;;0.85;0.75;;;;;;;1.59;94.85;97890.05;1775772;80;21492;-65
2022/02/06 05:42:30;;;;;;;0.93;0.60;;;;;;;1.58;94.85;97885.82;1805684;78;21499;-65
2022/02/06 05:44:57;;;;;;;0.73;0.67;;;;;;;1.56;94.80;97889.27;1814961;78;20938;-65
2022/02/06 05:47:25;;;;;;;1.10;0.93;;;;;;;1.53;94.83;97879.11;1790253;78;20886;-66
2022/02/06 05:49:53;;;;;;;0.98;0.65;;;;;;;1.47;94.89;97875.50;1785099;79;21164;-65
2022/02/06 05:52:21;;;;;;;;;;;;;;;1.47;94.91;97870.81;1822938;78;21100;-65
2022/02/06 05:54:48;;;;;;;1.22;0.70;;;;;;;1.46;94.94;97867.41;1814506;78;20156;-66
2022/02/06 05:57:14;;;;;;;0.80;0.50;;;;;;;1.44;94.93;97873.05;1814578;78;21552;-66
2022/02/06 05:59:43;;;;;;;0.98;0.88;;;;;;;1.41;94.99;97859.03;1817268;78;20972;-66
2022/02/06 06:02:09;;;;;;;1.42;1.07;;;;;;;1.40;95.03;97859.95;1815862;78;21927;-65
2022/02/06 06:04:36;;;;;;;0.70;0.70;;;;;;;1.41;95.09;97866.75;1811422;78;21017;-65
2022/02/06 06:07:04;;;;;;;3.42;0.72;;;;;;;1.41;95.17;97864.18;1814571;78;21025;-65
2022/02/06 06:09:32;;;;;;;0.70;0.70;;;;;;;1.41;95.10;97858.20;1806211;78;21270;-66
2022/02/06 06:11:59;;;;;;;0.60;0.60;;;;;;;1.41;95.20;97853.06;1812156;78;21260;-66
2022/02/06 06:14:29;;;;;;;1.57;0.77;;;;;;;1.43;95.25;97850.82;1810209;78;21069;-65
2022/02/06 06:16:58;;;;;;;1.00;0.80;;;;;;;1.43;95.18;97850.82;1786778;79;21972;-67
2022/02/06 06:19:25;;;;;;;1.02;0.78;;;;;;;1.44;95.17;97840.91;1809594;78;21020;-66
2022/02/06 06:21:57;;;;;;;;;;;;;;;1.41;95.19;97833.32;1806281;78;21144;-66
2022/02/06 06:24:26;;;;;;;0.62;0.47;;;;;;;1.41;95.27;97826.89;1781436;78;20084;-65
2022/02/06 06:26:54;;;;;;;1.20;0.68;;;;;;;1.42;95.36;97837.55;1787900;78;21483;-66
2022/02/06 06:29:42;;;;;;;0.65;0.40;;;;;;;1.42;95.32;97832.41;1817652;78;20993;-66
2022/02/06 06:32:09;;;;;;;1.20;0.90;;;;;;;1.42;95.34;97828.55;1746743;81;21665;-65
2022/02/06 06:34:36;;;;;;;1.13;0.70;;;;;;;1.40;95.37;97825.66;1749621;81;21077;-65
2022/02/06 06:37:04;;;;;;;1.12;0.72;;;;;;;1.45;95.50;97820.70;1747747;80;21064;-66
2022/02/06 06:39:38;;;;;;;;;;;;;;;1.49;95.55;97820.98;1754514;81;21119;-65
2022/02/06 06:42:03;;;;;;;1.12;0.60;;;;;;;1.51;95.54;97819.20;1748426;81;20193;-65
2022/02/06 06:44:29;;;;;;;1.07;0.50;;;;;;;1.52;95.60;97800.28;1751849;81;20944;-66
2022/02/06 06:46:56;;;;;;;0.88;0.72;;;;;;;1.54;95.61;97806.63;1752112;81;21427;-65
2022/02/06 06:49:23;;;;;;;0.70;0.70;;;;;;;1.56;95.61;97801.81;1737005;81;20974;-65
2022/02/06 06:51:50;;;;;;;1.03;0.70;;;;;;;1.59;95.63;97805.17;1734513;81;21710;-66
2022/02/06 06:54:21;;;;;;;1.17;0.85;;;;;;;1.60;95.59;97793.97;1735668;81;21081;-66
2022/02/06 06:56:54;;;;;;;0.75;0.60;;;;;;;1.60;95.58;97788.39;1728995;81;20987;-66
2022/02/06 06:59:28;;;;;;;0.70;0.60;;;;;;;1.64;95.60;97779.63;1731997;81;20990;-66
2022/02/06 07:01:45;;;;;;;1.00;0.80;;;;;;;1.66;95.58;97791.16;1706444;81;21062;-66
2022/02/06 07:04:11;;;;;;;0.80;0.80;;;;;;;1.69;95.60;97779.45;1736080;81;22117;-66
2022/02/06 07:06:38;;;;;;;0.95;0.60;;;;;;;1.69;95.58;97772.56;1735332;81;20963;-66
2022/02/06 07:09:04;;;;;;;0.80;0.70;;;;;;;1.72;95.60;97765.17;1738868;81;21753;-66
2022/02/06 07:11:31;;;;;;;0.90;0.75;;;;;;;1.73;95.64;97776.66;1738123;81;21085;-66
2022/02/06 07:17:50;;;;;;;1.37;1.17;;;;;;;1.77;95.70;97764.53;1733171;81;22092;-66
2022/02/06 07:20:18;;;;;;;1.10;1.00;;;;;;;1.81;95.81;97762.19;1725246;81;20962;-66
2022/02/06 07:22:45;;;;;;;2.10;1.22;;;;;;;1.83;95.79;97762.97;1726539;81;20982;-65
2022/02/06 07:25:12;;;;;;;;;;;;;;;1.84;95.79;97762.05;1725017;81;21076;-65
2022/02/06 07:27:44;;;;;;;2.27;1.40;;;;;;;1.86;95.83;97754.28;1721960;82;20121;-65
2022/02/06 07:30:10;;;;;;;1.32;1.05;;;;;;;1.87;95.91;97746.48;1747551;80;21823;-65
2022/02/06 07:32:38;;;;;;;1.20;0.90;;;;;;;1.89;95.93;97742.11;1736934;81;21379;-65
2022/02/06 07:35:09;;;;;;;1.90;1.32;;;;;;;1.90;95.88;97732.64;1735899;82;20976;-65
2022/02/06 07:37:43;;;;;;;1.07;0.93;;;;;;;1.94;95.91;97730.34;1722001;82;21553;-65
2022/02/06 07:40:11;;;;;;;2.08;1.40;;;;;;;1.97;95.96;97731.02;1727856;81;21063;-65
2022/02/06 07:42:39;;;;;;;2.27;1.70;;;;;;;2.03;96.03;97714.93;1732891;82;21109;-65
2022/02/06 07:45:10;;;;;;;3.30;2.25;;;;;;;2.06;96.01;97727.66;1736577;81;21095;-65
2022/02/06 07:47:43;;;;;;;35.68;20.68;;;;;;;2.09;96.03;97714.65;1703614;83;20975;-65
2022/02/06 07:50:29;;;;;;;5.47;3.98;;;;;;;2.14;96.11;97716.57;1748778;81;20946;-66
2022/02/06 07:52:56;;;;;;;4.58;3.40;;;;;;;2.20;96.03;97720.98;1746759;81;21100;-65
2022/02/06 07:55:25;;;;;;;3.92;3.15;;;;;;;2.23;95.98;97720.01;1747837;81;22210;-65
2022/02/06 07:57:52;;;;;;;2.05;1.70;;;;;;;2.23;95.90;97696.83;1750012;80;21575;-66
2022/02/06 08:00:20;;;;;;;2.15;1.52;;;;;;;2.25;95.98;97706.62;1747435;80;21024;-65
2022/02/06 08:02:46;;;;;;;3.35;1.42;;;;;;;2.26;95.96;97700.55;1770070;80;20993;-67
2022/02/06 08:05:17;;;;;;;2.40;1.35;;;;;;;2.29;95.92;97691.85;1750147;80;21613;-66
2022/02/06 08:07:43;;;;;;;1.85;1.50;;;;;;;2.33;96.04;97692.94;1751283;80;21543;-66
2022/02/06 08:10:10;;;;;;;1.52;1.37;;;;;;;2.33;95.96;97690.36;1749149;80;21002;-66
2022/02/06 08:12:45;;;;;;;2.22;1.42;;;;;;;2.36;96.01;97691.96;1751237;81;21060;-67
2022/02/06 08:15:08;;;;;;;2.60;1.60;;;;;;;2.36;95.96;97690.67;1750420;81;21572;-65
2022/02/06 08:17:39;;;;;;;1.80;1.55;;;;;;;2.39;96.05;97699.09;1749881;81;22268;-65
2022/02/06 08:20:11;;;;;;;2.50;1.47;;;;;;;2.45;96.17;97681.22;1733607;81;21698;-65
2022/02/06 08:22:38;;;;;;;2.33;1.40;;;;;;;2.46;95.97;97678.59;1705875;82;21025;-65
2022/02/06 08:25:07;;;;;;;2.15;1.62;;;;;;;2.52;96.15;97676.61;1734142;81;28231;-65
2022/02/06 08:27:35;;;;;;;2.42;1.90;;;;;;;2.59;96.08;97676.25;1747049;81;21486;-66
2022/02/06 08:30:05;;;;;;;2.08;1.52;;;;;;;2.66;96.17;97675.48;1750411;81;20953;-65
2022/02/06 08:32:33;;;;;;;3.75;1.72;;;;;;;2.72;96.23;97668.78;1751181;80;21167;-64
2022/02/06 08:35:01;;;;;;;2.12;1.27;;;;;;;2.77;96.19;97677.09;1732080;81;21067;-65
2022/02/06 08:37:30;;;;;;;2.42;1.22;;;;;;;2.79;96.11;97668.84;1751623;80;21044;-65
2022/02/06 08:39:57;;;;;;;2.52;1.40;;;;;;;2.80;96.05;97660.66;1759620;80;20977;-65
2022/02/06 08:42:24;;;;;;;1.90;1.30;;;;;;;2.84;96.10;97670.75;1750563;80;21514;-65
2022/02/06 08:45:14;;;;;;;1.70;1.20;;;;;;;2.81;95.87;97660.59;1710857;80;21194;-65
2022/02/06 08:47:43;;;;;;;1.92;1.72;;;;;;;2.79;95.90;97662.41;1751749;80;21002;-66
2022/02/06 08:50:11;;;;;;;1.72;1.50;;;;;;;2.79;95.97;97667.55;1753558;80;20952;-66
2022/02/06 08:52:41;;;;;;;2.25;1.60;;;;;;;2.84;96.10;97669.92;1751986;80;20900;-66
2022/02/06 08:55:11;;;;;;;3.23;1.63;;;;;;;2.85;96.11;97669.83;1729388;81;21088;-65
2022/02/06 08:57:47;;;;;;;2.20;1.45;;;;;;;2.86;96.03;97662.50;1730136;81;22102;-66
2022/02/06 09:00:15;;;;;;;1.60;1.20;;;;;;;2.88;96.05;97661.94;1730247;81;20963;-67
2022/02/06 09:02:42;;;;;;;2.45;1.45;;;;;;;2.90;95.96;97656.27;1751632;81;21587;-67
2022/02/06 09:05:09;;;;;;;1.70;1.37;;;;;;;2.87;95.80;97655.13;1723771;81;21101;-66
2022/02/06 09:07:36;;;;;;;3.30;1.35;;;;;;;2.85;95.75;97659.52;1723805;81;20997;-66
2022/02/06 09:10:04;;;;;;;5.58;1.75;;;;;;;2.86;95.89;97661.20;1722253;81;21477;-66
2022/02/06 09:12:31;;;;;;;2.22;1.65;;;;;;;2.86;95.83;97658.63;1732804;81;21013;-66
2022/02/06 09:14:58;;;;;;;2.50;1.60;;;;;;;2.83;95.69;97656.20;1730072;82;20951;-66
2022/02/06 09:17:25;;;;;;;3.55;2.00;;;;;;;2.81;95.71;97647.70;1731394;82;20980;-66
2022/02/06 09:19:53;;;;;;;1.90;1.50;;;;;;;2.79;95.72;97648.23;1734430;82;20952;-66
2022/02/06 09:22:20;;;;;;;;;;;;;;;2.78;95.72;97639.30;1735395;81;21972;-66
2022/02/06 09:24:46;;;;;;;2.40;1.55;;;;;;;2.79;95.83;97641.78;1732176;80;20206;-66
2022/02/06 09:27:13;;;;;;;2.20;1.70;;;;;;;2.80;95.88;97646.48;1730183;82;20948;-66
2022/02/06 09:29:42;;;;;;;4.33;2.27;;;;;;;2.82;95.93;97639.05;1729322;80;21588;-66
2022/02/06 09:37:14;;;;;;;3.62;1.98;;;;;;;2.88;95.85;97625.03;1727908;80;21025;-66
2022/02/06 09:39:42;;;;;;;2.27;1.50;;;;;;;2.93;96.04;97627.39;1734611;81;21527;-66
2022/02/06 09:42:10;;;;;;;3.80;2.00;;;;;;;2.97;95.98;97625.02;1737267;81;20998;-66
2022/02/06 09:44:37;;;;;;;5.60;2.02;;;;;;;2.99;96.03;97627.08;1733358;81;21074;-65
2022/02/06 09:47:06;;;;;;;2.02;1.75;;;;;;;3.01;95.99;97614.95;1750663;80;21200;-66
2022/02/06 09:49:34;;;;;;;6.83;2.33;;;;;;;3.04;95.94;97615.63;1754823;81;21052;-66
2022/02/06 09:52:01;;;;;;;4.83;2.12;;;;;;;3.02;95.85;97603.72;1757875;80;20994;-66
2022/02/06 09:54:29;;;;;;;3.90;2.25;;;;;;;3.03;95.94;97605.41;1758245;80;21587;-67
2022/02/06 09:56:59;;;;;;;7.35;3.20;;;;;;;3.05;96.01;97608.72;1750386;81;21014;-66
2022/02/06 09:59:27;;;;;;;5.65;3.30;;;;;;;3.07;95.94;97601.74;1754948;81;21494;-66
2022/02/06 10:02:00;;;;;;;4.65;2.80;;;;;;;3.07;96.01;97612.06;1727154;80;20958;-66
2022/02/06 10:04:30;;;;;;;6.40;2.47;;;;;;;3.12;96.13;97599.77;1756063;80;21013;-66
2022/02/06 10:07:16;;;;;;;7.65;2.85;;;;;;;3.15;96.23;97591.87;1751426;80;20995;-66
2022/02/06 10:10:00;;;;;;;8.00;3.17;;;;;;;3.18;96.32;97584.44;1749405;80;21507;-67
2022/02/06 10:12:34;;;;;;;5.90;2.90;;;;;;;3.23;96.40;97592.31;1742526;80;21967;-66
2022/02/06 10:15:05;;;;;;;5.55;2.55;;;;;;;3.28;96.49;97578.73;1754862;80;21521;-66
2022/02/06 10:17:35;;;;;;;4.08;1.98;;;;;;;3.36;96.56;97577.87;1742164;81;20973;-67
2022/02/06 10:20:03;;;;;;;7.72;3.40;;;;;;;3.42;96.48;97565.55;1740375;81;21650;-66
2022/02/06 10:22:42;;;;;;;5.37;3.65;;;;;;;3.44;96.59;97561.15;1719556;81;20949;-66
2022/02/06 10:25:10;;;;;;;9.10;5.45;;;;;;;3.51;96.62;97559.92;1751142;81;21105;-66
2022/02/06 10:28:08;;;;;;;12.45;6.83;;;;;;;3.51;96.61;97544.44;1744666;81;20994;-66
2022/02/06 10:30:46;;;;;;;9.83;3.75;;;;;;;3.53;96.69;97529.72;1742864;81;21031;-66
2022/02/06 10:33:27;;;;;;;5.55;3.08;;;;;;;3.56;96.69;97530.38;1730073;80;22462;-65
2022/02/06 10:35:57;;;;;;;4.90;2.60;;;;;;;3.65;96.84;97529.05;1745955;81;21562;-66
2022/02/06 10:38:27;;;;;;;6.95;2.83;;;;;;;3.73;96.87;97513.98;1752322;81;21910;-66
2022/02/06 10:41:17;;;;;;;8.70;4.85;;;;;;;3.76;96.86;97526.72;1746356;81;21634;-66
2022/02/06 10:44:05;;;;;;;5.85;2.80;;;;;;;3.83;96.93;97518.63;1751508;81;21024;-65
2022/02/06 10:46:53;;;;;;;4.78;2.35;;;;;;;3.92;96.98;97520.69;1743185;80;21047;-65
2022/02/06 10:49:21;;;;;;;4.72;2.37;;;;;;;3.99;96.99;97514.28;1739528;81;21013;-65
2022/02/06 10:51:58;;;;;;;3.45;2.12;;;;;;;4.04;96.88;97523.90;1738741;81;21583;-66
2022/02/06 10:54:33;;;;;;;4.67;2.40;;;;;;;4.06;96.82;97507.84;1757946;80;20981;-66
2022/02/06 10:57:15;;;;;;;12.70;8.18;;;;;;;4.05;96.81;97503.61;1756955;80;20965;-66
2022/02/06 10:59:49;;;;;;;4.95;3.27;;;;;;;4.07;96.99;97503.53;1759693;80;20966;-66
2022/02/06 11:02:29;;;;;;;3.42;2.22;;;;;;;4.09;97.04;97492.20;1761058;80;21003;-66
2022/02/06 11:05:02;;;;;;;5.45;3.27;;;;;;;4.11;96.95;97496.80;1763159;79;21467;-66
2022/02/06 11:07:30;;;;;;;4.78;2.98;;;;;;;4.16;96.93;97490.91;1760709;80;21054;-65
2022/02/06 11:10:14;;;;;;;;;;;;;;;4.18;96.91;97489.09;1761920;80;20927;-66
2022/02/06 11:12:44;;;;;;;5.37;2.70;;;;;;;4.25;97.01;97483.92;1725729;81;20133;-65
2022/02/06 11:15:31;;;;;;;5.60;3.33;;;;;;;4.29;96.98;97475.56;1759896;81;21022;-66
2022/02/06 11:18:21;;;;;;;;;;;;;;;4.31;96.85;97475.45;1702519;83;21909;-66
2022/02/06 11:21:09;;;;;;;3.47;2.55;;;;;;;4.31;96.84;97478.03;1715273;82;22305;-66
2022/02/06 11:23:43;;;;;;;4.00;3.00;;;;;;;4.33;97.00;97471.03;1702123;83;21554;-66
2022/02/06 11:26:17;;;;;;;2.37;1.95;;;;;;;4.33;97.01;97467.16;1713736;82;20907;-66
2022/02/06 11:28:46;;;;;;;2.60;1.67;;;;;;;4.37;96.93;97459.16;1697495;83;21816;-66
2022/02/06 11:31:17;;;;;;;3.00;1.80;;;;;;;4.48;97.26;97454.63;1700897;82;21094;-67
2022/02/06 11:33:48;;;;;;;2.15;1.70;;;;;;;4.62;97.30;97454.67;1720547;82;21079;-66
2022/02/06 11:36:19;;;;;;;2.25;1.80;;;;;;;4.73;97.04;97448.02;1698108;82;20970;-66
2022/02/06 11:45:19;;;;;;;3.55;2.15;;;;;;;4.75;96.52;97431.48;1719813;82;21921;-66
2022/02/06 11:47:59;;;;;;;1.65;1.40;;;;;;;4.68;96.55;97432.33;1716030;82;21603;-67
2022/02/06 11:50:30;;;;;;;1.70;1.30;;;;;;;4.64;96.58;97428.72;1700096;82;21121;-67
2022/02/06 11:53:09;;;;;;;2.85;1.77;;;;;;;4.66;96.80;97427.70;1714235;82;21523;-67
2022/02/06 11:55:46;;;;;;;2.72;1.20;;;;;;;4.69;96.94;97431.86;1729447;81;21129;-64
2022/02/06 11:58:33;;;;;;;1.85;1.67;;;;;;;4.75;96.73;97424.20;1761171;80;21098;-65
2022/02/06 12:01:12;;;;;;;1.72;1.25;;;;;;;4.75;96.87;97420.33;1758527;80;20955;-66
2022/02/06 12:04:02;;;;;;;2.52;1.98;;;;;;;4.74;96.97;97423.84;1732866;81;20989;-65
2022/02/06 12:06:49;;;;;;;1.50;1.35;;;;;;;4.70;96.77;97414.12;1760387;81;21606;-65
2022/02/06 12:09:21;;;;;;;2.95;2.10;;;;;;;4.74;96.82;97403.16;1761154;80;20944;-65
2022/02/06 12:12:09;;;;;;;7.20;6.22;;;;;;;4.68;96.82;97401.31;1765762;79;21093;-65
2022/02/06 12:14:46;;;;;;;2.90;2.15;;;;;;;4.65;96.92;97400.20;1743576;81;20937;-65
2022/02/06 12:18:05;;;;;;;3.25;2.47;;;;;;;4.62;97.02;97395.23;1758792;79;21553;-65
2022/02/06 12:20:14;;;;;;;3.05;1.40;;;;;;;4.66;97.08;97396.69;1722848;81;21064;-66
2022/02/06 12:22:49;;;;;;;3.20;1.75;;;;;;;4.67;97.06;97391.88;1757239;80;21017;-66
2022/02/06 12:25:36;;;;;;;3.70;2.40;;;;;;;4.73;97.14;97383.39;1760166;80;22039;-65
2022/02/06 12:28:21;;;;;;;3.87;2.05;;;;;;;4.78;97.17;97374.89;1760649;80;20989;-66
2022/02/06 12:30:52;;;;;;;2.77;2.22;;;;;;;4.83;97.20;97368.52;1759485;81;21058;-65
2022/02/06 12:33:31;;;;;;;2.98;2.27;;;;;;;4.90;97.05;97372.84;1735981;80;20989;-65
2022/02/06 12:38:40;;;;;;;2.15;1.85;;;;;;;4.89;96.77;97359.55;1757344;80;21504;-65
2022/02/06 12:41:28;;;;;;;2.30;1.23;;;;;;;4.85;96.77;97359.39;1749961;81;20903;-65
2022/02/06 12:44:17;;;;;;;2.83;1.70;;;;;;;4.85;96.80;97345.16;1849021;75;22863;-64
2022/02/06 12:46:51;;;;;;;2.67;1.80;;;;;;;4.78;96.85;97342.58;1828500;76;21031;-65
2022/02/06 12:49:22;;;;;;;2.60;1.70;;;;;;;4.76;97.01;97349.59;1834397;76;21450;-64
2022/02/06 12:51:47;;;;;;;2.98;1.57;;;;;;;4.78;97.18;97339.98;1828087;76;21016;-66
2022/02/06 12:54:14;;;;;;;4.45;2.42;;;;;;;4.78;97.17;97332.23;1833324;76;20953;-64
2022/02/06 12:56:43;;;;;;;6.85;4.12;;;;;;;4.80;97.26;97326.05;1831339;77;20930;-65
2022/02/06 12:59:16;;;;;;;6.47;4.05;;;;;;;4.84;97.25;97324.09;1831686;77;20938;-65
2022/02/06 13:01:45;;;;;;;8.05;5.15;;;;;;;4.87;97.34;97308.38;1831854;76;21888;-66
2022/02/06 13:04:15;;;;;;;7.12;3.75;;;;;;;4.90;97.17;97303.02;1828655;78;20980;-65
2022/02/06 13:06:45;;;;;;;4.45;2.58;;;;;;;4.89;97.13;97301.38;1826734;78;21012;-65
2022/02/06 13:09:28;;;;;;;4.20;2.62;;;;;;;4.90;97.27;97300.43;1824999;78;20977;-65
2022/02/06 13:12:27;;;;;;;6.50;4.50;;;;;;;4.96;97.38;97304.39;1835214;76;20969;-63
2022/02/06 13:25:05;;;;;;;4.67;3.27;;;;;;;5.05;97.17;97317.59;1843016;76;21061;-64
2022/02/06 13:27:46;;;;;;;3.00;2.15;;;;;;;5.13;96.83;97316.64;1807563;78;21590;-65
2022/02/06 13:30:30;;;;;;;3.33;2.05;;;;;;;5.13;96.74;97321.81;1841483;76;20914;-65
2022/02/06 13:37:57;;;;;;;4.22;2.42;;;;;;;4.97;96.80;97312.06;1843191;76;21078;-65
2022/02/06 13:40:23;;;;;;;2.45;1.92;;;;;;;4.95;96.70;97307.44;1836265;76;21597;-65
2022/02/06 13:43:16;;;;;;;4.15;2.40;;;;;;;4.87;97.01;97303.21;1819072;78;20984;-65
2022/02/06 13:45:41;;;;;;;4.15;2.85;;;;;;;4.88;97.02;97297.14;1766996;79;21063;-65
2022/02/06 13:48:14;;;;;;;5.92;2.50;;;;;;;4.86;97.17;97300.27;1780132;79;21028;-65
2022/02/06 13:50:54;;;;;;;2.83;1.98;;;;;;;4.89;96.90;97293.61;1765798;80;21479;-66
2022/02/06 13:53:23;;;;;;;2.45;1.85;;;;;;;4.89;96.85;97294.44;1773877;79;21050;-65
2022/02/06 13:55:56;;;;;;;2.80;2.25;;;;;;;4.88;96.83;97284.20;1777022;79;20968;-65
2022/02/06 13:58:25;;;;;;;3.67;2.15;;;;;;;4.89;96.90;97280.69;1762598;81;21000;-65
2022/02/06 14:01:00;;;;;;;3.33;2.27;;;;;;;4.89;97.06;97272.92;1798179;79;21073;-66
2022/02/06 14:03:50;;;;;;;2.62;1.77;;;;;;;4.87;97.14;97268.30;1780422;79;21048;-65
2022/02/06 14:06:25;;;;;;;6.12;2.10;;;;;;;4.87;97.28;97263.14;1705211;82;21050;-65
2022/02/06 14:09:09;;;;;;;2.87;1.90;;;;;;;4.95;96.97;97262.19;1725602;82;21534;-65
2022/02/06 14:11:35;;;;;;;2.15;1.70;;;;;;;4.85;97.24;97261.13;1722394;81;21112;-64